TextMetar.com - Aviation Weather SMS

METARs and TAFs in the air with cell signal. No 4G/Wi-Fi required.

Add us to your contacts: (714) 352-4346

Messages (714) 352-4346 Contact
KFUL KLGB
KFUL 031853Z 00000KT 4SM HZ CLR 19/12 A3007 RMK AO2 SLP183 T01890122
KLGB 031853Z 00000KT 6SM HZ CLR 19/13 A3008 RMK AO2 SLP185 T01890128
TAF: KLGB 031747Z 0318/0418 00000KT 5SM HZ BKN120
FM031900 19006KT P6SM BKN120
FM040600 35002KT 5SM BR OVC100